sensor_id;sensor_type;location;lat;lon;timestamp;temperature;humidity
2967;DHT22;1493;51.496;7.210;2022-12-31T00:01:03;12.90;99.90
2967;DHT22;1493;51.496;7.210;2022-12-31T00:03:30;12.90;99.90
2967;DHT22;1493;51.496;7.210;2022-12-31T00:05:57;12.90;99.90
2967;DHT22;1493;51.496;7.210;2022-12-31T00:08:24;13.00;99.90
2967;DHT22;1493;51.496;7.210;2022-12-31T00:10:50;13.00;99.90
2967;DHT22;1493;51.496;7.210;2022-12-31T00:13:17;13.00;99.90
2967;DHT22;1493;51.496;7.210;2022-12-31T00:15:44;13.10;99.90
2967;DHT22;1493;51.496;7.210;2022-12-31T00:18:12;13.20;99.90
2967;DHT22;1493;51.496;7.210;2022-12-31T00:20:40;13.10;99.90
2967;DHT22;1493;51.496;7.210;2022-12-31T00:23:08;13.10;99.90
2967;DHT22;1493;51.496;7.210;2022-12-31T00:25:35;13.10;99.90
2967;DHT22;1493;51.496;7.210;2022-12-31T00:28:02;13.10;99.90
2967;DHT22;1493;51.496;7.210;2022-12-31T00:30:29;13.10;99.90
2967;DHT22;1493;51.496;7.210;2022-12-31T00:32:56;13.10;99.90
2967;DHT22;1493;51.496;7.210;2022-12-31T00:35:24;13.10;99.90
2967;DHT22;1493;51.496;7.210;2022-12-31T00:37:51;13.10;99.90
2967;DHT22;1493;51.496;7.210;2022-12-31T00:40:19;13.00;99.90
2967;DHT22;1493;51.496;7.210;2022-12-31T00:42:46;13.00;99.90
2967;DHT22;1493;51.496;7.210;2022-12-31T00:45:13;13.00;99.90
2967;DHT22;1493;51.496;7.210;2022-12-31T00:47:40;13.00;99.90
2967;DHT22;1493;51.496;7.210;2022-12-31T00:50:07;12.90;99.90
2967;DHT22;1493;51.496;7.210;2022-12-31T00:52:36;12.90;99.90
2967;DHT22;1493;51.496;7.210;2022-12-31T00:55:03;12.90;99.90
2967;DHT22;1493;51.496;7.210;2022-12-31T00:57:30;12.90;99.90
2967;DHT22;1493;51.496;7.210;2022-12-31T01:00:00;12.90;99.90
2967;DHT22;1493;51.496;7.210;2022-12-31T01:02:27;12.80;99.90
2967;DHT22;1493;51.496;7.210;2022-12-31T01:04:53;12.90;99.90
2967;DHT22;1493;51.496;7.210;2022-12-31T01:07:20;12.80;99.90
2967;DHT22;1493;51.496;7.210;2022-12-31T01:09:48;12.80;99.90
2967;DHT22;1493;51.496;7.210;2022-12-31T01:12:15;12.90;99.90
2967;DHT22;1493;51.496;7.210;2022-12-31T01:14:42;12.90;99.90
2967;DHT22;1493;51.496;7.210;2022-12-31T01:17:09;12.80;99.90
2967;DHT22;1493;51.496;7.210;2022-12-31T01:19:37;12.80;99.90
2967;DHT22;1493;51.496;7.210;2022-12-31T01:22:04;12.90;99.90
2967;DHT22;1493;51.496;7.210;2022-12-31T01:24:31;12.90;99.90
2967;DHT22;1493;51.496;7.210;2022-12-31T01:26:59;12.80;99.90
2967;DHT22;1493;51.496;7.210;2022-12-31T01:29:26;12.90;99.90
2967;DHT22;1493;51.496;7.210;2022-12-31T01:31:54;12.90;99.90
2967;DHT22;1493;51.496;7.210;2022-12-31T01:34:21;12.90;99.90
2967;DHT22;1493;51.496;7.210;2022-12-31T01:36:47;12.90;99.90
2967;DHT22;1493;51.496;7.210;2022-12-31T01:39:14;13.00;99.90
2967;DHT22;1493;51.496;7.210;2022-12-31T01:41:44;13.00;99.90
2967;DHT22;1493;51.496;7.210;2022-12-31T01:44:51;13.00;99.90
2967;DHT22;1493;51.496;7.210;2022-12-31T01:47:24;13.00;99.90
2967;DHT22;1493;51.496;7.210;2022-12-31T01:49:57;13.10;99.90
2967;DHT22;1493;51.496;7.210;2022-12-31T01:52:27;13.10;99.90
2967;DHT22;1493;51.496;7.210;2022-12-31T01:54:58;13.10;99.90
2967;DHT22;1493;51.496;7.210;2022-12-31T01:57:27;13.20;99.90
2967;DHT22;1493;51.496;7.210;2022-12-31T01:59:58;13.20;99.90
2967;DHT22;1493;51.496;7.210;2022-12-31T02:02:26;13.20;99.90
2967;DHT22;1493;51.496;7.210;2022-12-31T02:04:54;13.30;99.90
2967;DHT22;1493;51.496;7.210;2022-12-31T02:07:22;13.30;99.90
2967;DHT22;1493;51.496;7.210;2022-12-31T02:09:49;13.30;99.90
2967;DHT22;1493;51.496;7.210;2022-12-31T02:12:17;13.30;99.90
2967;DHT22;1493;51.496;7.210;2022-12-31T02:14:45;13.30;99.90
2967;DHT22;1493;51.496;7.210;2022-12-31T02:17:22;13.30;99.90
2967;DHT22;1493;51.496;7.210;2022-12-31T02:20:30;13.30;99.90
2967;DHT22;1493;51.496;7.210;2022-12-31T02:23:24;13.40;99.90
2967;DHT22;1493;51.496;7.210;2022-12-31T02:26:19;13.40;99.90
2967;DHT22;1493;51.496;7.210;2022-12-31T02:29:10;13.40;99.90
2967;DHT22;1493;51.496;7.210;2022-12-31T02:31:45;13.50;99.90
2967;DHT22;1493;51.496;7.210;2022-12-31T02:34:20;13.50;99.90
2967;DHT22;1493;51.496;7.210;2022-12-31T02:36:51;13.60;99.90
2967;DHT22;1493;51.496;7.210;2022-12-31T02:39:20;13.60;99.90
2967;DHT22;1493;51.496;7.210;2022-12-31T02:41:48;13.70;99.90
2967;DHT22;1493;51.496;7.210;2022-12-31T02:44:23;13.70;99.90
2967;DHT22;1493;51.496;7.210;2022-12-31T02:47:00;13.80;99.90
2967;DHT22;1493;51.496;7.210;2022-12-31T02:49:34;13.90;99.90
2967;DHT22;1493;51.496;7.210;2022-12-31T02:52:13;13.90;99.90
2967;DHT22;1493;51.496;7.210;2022-12-31T02:54:49;13.90;99.90
2967;DHT22;1493;51.496;7.210;2022-12-31T02:57:23;13.90;99.90
2967;DHT22;1493;51.496;7.210;2022-12-31T02:59:54;14.00;99.90
2967;DHT22;1493;51.496;7.210;2022-12-31T03:02:43;13.90;99.90
2967;DHT22;1493;51.496;7.210;2022-12-31T03:05:11;13.90;99.90
2967;DHT22;1493;51.496;7.210;2022-12-31T03:07:39;13.90;99.90
2967;DHT22;1493;51.496;7.210;2022-12-31T03:10:07;14.00;99.90
2967;DHT22;1493;51.496;7.210;2022-12-31T03:12:35;14.10;99.90
2967;DHT22;1493;51.496;7.210;2022-12-31T03:15:12;14.10;99.90
2967;DHT22;1493;51.496;7.210;2022-12-31T03:17:53;14.10;99.90
2967;DHT22;1493;51.496;7.210;2022-12-31T03:20:22;14.10;99.90
2967;DHT22;1493;51.496;7.210;2022-12-31T03:23:10;14.10;99.90
2967;DHT22;1493;51.496;7.210;2022-12-31T03:25:36;14.10;99.90
2967;DHT22;1493;51.496;7.210;2022-12-31T03:28:06;14.00;99.90
2967;DHT22;1493;51.496;7.210;2022-12-31T03:30:33;14.00;99.90
2967;DHT22;1493;51.496;7.210;2022-12-31T03:33:02;14.00;99.90
2967;DHT22;1493;51.496;7.210;2022-12-31T03:35:31;14.00;99.90
2967;DHT22;1493;51.496;7.210;2022-12-31T03:37:59;14.00;99.90
2967;DHT22;1493;51.496;7.210;2022-12-31T03:40:29;14.10;99.90
2967;DHT22;1493;51.496;7.210;2022-12-31T03:42:56;14.00;99.90
2967;DHT22;1493;51.496;7.210;2022-12-31T03:45:23;14.00;99.90
2967;DHT22;1493;51.496;7.210;2022-12-31T03:47:50;14.00;99.90
2967;DHT22;1493;51.496;7.210;2022-12-31T03:50:19;13.90;99.90
2967;DHT22;1493;51.496;7.210;2022-12-31T03:52:45;14.00;99.90
2967;DHT22;1493;51.496;7.210;2022-12-31T03:55:13;14.00;99.90
2967;DHT22;1493;51.496;7.210;2022-12-31T03:57:40;14.20;99.90
2967;DHT22;1493;51.496;7.210;2022-12-31T04:00:10;14.20;99.90
2967;DHT22;1493;51.496;7.210;2022-12-31T04:02:38;14.20;99.90
2967;DHT22;1493;51.496;7.210;2022-12-31T04:05:06;14.20;99.90
2967;DHT22;1493;51.496;7.210;2022-12-31T04:07:34;14.20;99.90
2967;DHT22;1493;51.496;7.210;2022-12-31T04:10:02;14.30;99.90
2967;DHT22;1493;51.496;7.210;2022-12-31T04:12:28;14.30;99.90
2967;DHT22;1493;51.496;7.210;2022-12-31T04:14:56;14.40;99.90
2967;DHT22;1493;51.496;7.210;2022-12-31T04:17:23;14.60;99.90
2967;DHT22;1493;51.496;7.210;2022-12-31T04:19:50;14.60;99.90
2967;DHT22;1493;51.496;7.210;2022-12-31T04:22:17;14.70;99.90
2967;DHT22;1493;51.496;7.210;2022-12-31T04:24:45;14.70;99.90
2967;DHT22;1493;51.496;7.210;2022-12-31T04:27:12;14.80;99.90
2967;DHT22;1493;51.496;7.210;2022-12-31T04:29:39;14.80;99.90
2967;DHT22;1493;51.496;7.210;2022-12-31T04:32:07;14.80;99.90
2967;DHT22;1493;51.496;7.210;2022-12-31T04:34:34;14.90;99.90
2967;DHT22;1493;51.496;7.210;2022-12-31T04:37:01;15.00;99.90
2967;DHT22;1493;51.496;7.210;2022-12-31T04:39:28;14.90;99.90
2967;DHT22;1493;51.496;7.210;2022-12-31T04:41:56;14.80;99.90
2967;DHT22;1493;51.496;7.210;2022-12-31T04:44:23;14.80;99.90
2967;DHT22;1493;51.496;7.210;2022-12-31T04:46:50;14.70;99.90
2967;DHT22;1493;51.496;7.210;2022-12-31T04:49:17;14.70;99.90
2967;DHT22;1493;51.496;7.210;2022-12-31T04:51:43;14.70;99.90
2967;DHT22;1493;51.496;7.210;2022-12-31T04:54:10;14.80;99.90
2967;DHT22;1493;51.496;7.210;2022-12-31T04:56:37;14.90;99.90
2967;DHT22;1493;51.496;7.210;2022-12-31T04:59:05;14.90;99.90
2967;DHT22;1493;51.496;7.210;2022-12-31T05:01:33;15.10;99.90
2967;DHT22;1493;51.496;7.210;2022-12-31T05:04:01;15.20;99.90
2967;DHT22;1493;51.496;7.210;2022-12-31T05:06:28;15.30;99.90
2967;DHT22;1493;51.496;7.210;2022-12-31T05:08:54;15.30;99.90
2967;DHT22;1493;51.496;7.210;2022-12-31T05:11:21;15.40;99.90
2967;DHT22;1493;51.496;7.210;2022-12-31T05:13:48;15.50;99.90
2967;DHT22;1493;51.496;7.210;2022-12-31T05:16:16;15.50;99.90
2967;DHT22;1493;51.496;7.210;2022-12-31T05:18:43;15.60;99.90
2967;DHT22;1493;51.496;7.210;2022-12-31T05:21:16;15.60;99.90
2967;DHT22;1493;51.496;7.210;2022-12-31T05:23:43;15.70;99.90
2967;DHT22;1493;51.496;7.210;2022-12-31T05:26:10;15.70;99.90
2967;DHT22;1493;51.496;7.210;2022-12-31T05:28:37;15.80;99.90
2967;DHT22;1493;51.496;7.210;2022-12-31T05:31:04;15.80;99.90
2967;DHT22;1493;51.496;7.210;2022-12-31T05:33:32;15.80;99.90
2967;DHT22;1493;51.496;7.210;2022-12-31T05:35:59;15.90;99.90
2967;DHT22;1493;51.496;7.210;2022-12-31T05:38:26;15.90;99.90
2967;DHT22;1493;51.496;7.210;2022-12-31T05:40:58;16.00;99.90
2967;DHT22;1493;51.496;7.210;2022-12-31T05:43:25;15.90;99.90
2967;DHT22;1493;51.496;7.210;2022-12-31T05:45:52;16.00;99.90
2967;DHT22;1493;51.496;7.210;2022-12-31T05:48:19;16.00;99.90
2967;DHT22;1493;51.496;7.210;2022-12-31T05:50:47;16.10;99.90
2967;DHT22;1493;51.496;7.210;2022-12-31T05:53:14;16.10;99.90
2967;DHT22;1493;51.496;7.210;2022-12-31T05:55:41;16.10;99.90
2967;DHT22;1493;51.496;7.210;2022-12-31T05:58:08;16.20;99.90
2967;DHT22;1493;51.496;7.210;2022-12-31T06:00:34;16.20;99.90
2967;DHT22;1493;51.496;7.210;2022-12-31T06:03:01;16.20;99.90
2967;DHT22;1493;51.496;7.210;2022-12-31T06:05:28;16.20;99.90
2967;DHT22;1493;51.496;7.210;2022-12-31T06:07:56;16.20;99.90
2967;DHT22;1493;51.496;7.210;2022-12-31T06:10:23;16.30;99.90
2967;DHT22;1493;51.496;7.210;2022-12-31T06:12:49;16.20;99.90
2967;DHT22;1493;51.496;7.210;2022-12-31T06:15:16;16.20;99.90
2967;DHT22;1493;51.496;7.210;2022-12-31T06:17:43;16.20;99.90
2967;DHT22;1493;51.496;7.210;2022-12-31T06:20:10;16.20;99.90
2967;DHT22;1493;51.496;7.210;2022-12-31T06:22:37;16.20;99.90
2967;DHT22;1493;51.496;7.210;2022-12-31T06:25:06;16.20;99.90
2967;DHT22;1493;51.496;7.210;2022-12-31T06:27:33;16.20;99.90
2967;DHT22;1493;51.496;7.210;2022-12-31T06:30:00;16.30;99.90
2967;DHT22;1493;51.496;7.210;2022-12-31T06:32:26;16.30;99.90
2967;DHT22;1493;51.496;7.210;2022-12-31T06:34:53;16.30;99.90
2967;DHT22;1493;51.496;7.210;2022-12-31T06:37:20;16.30;99.90
2967;DHT22;1493;51.496;7.210;2022-12-31T06:39:47;16.30;99.90
2967;DHT22;1493;51.496;7.210;2022-12-31T06:42:15;16.30;99.90
2967;DHT22;1493;51.496;7.210;2022-12-31T06:44:42;16.40;99.90
2967;DHT22;1493;51.496;7.210;2022-12-31T06:47:09;16.30;99.90
2967;DHT22;1493;51.496;7.210;2022-12-31T06:49:36;16.30;99.90
2967;DHT22;1493;51.496;7.210;2022-12-31T06:52:04;16.30;99.90
2967;DHT22;1493;51.496;7.210;2022-12-31T06:54:32;16.40;99.90
2967;DHT22;1493;51.496;7.210;2022-12-31T06:56:59;16.30;99.90
2967;DHT22;1493;51.496;7.210;2022-12-31T06:59:28;16.40;99.90
2967;DHT22;1493;51.496;7.210;2022-12-31T07:02:14;16.30;99.90
2967;DHT22;1493;51.496;7.210;2022-12-31T07:05:12;16.40;99.90
2967;DHT22;1493;51.496;7.210;2022-12-31T07:07:50;16.30;99.90
2967;DHT22;1493;51.496;7.210;2022-12-31T07:10:27;16.30;99.90
2967;DHT22;1493;51.496;7.210;2022-12-31T07:13:07;16.30;99.90
2967;DHT22;1493;51.496;7.210;2022-12-31T07:15:48;16.30;99.90
2967;DHT22;1493;51.496;7.210;2022-12-31T07:18:23;16.40;99.90
2967;DHT22;1493;51.496;7.210;2022-12-31T07:20:52;16.40;99.90
2967;DHT22;1493;51.496;7.210;2022-12-31T07:23:20;16.40;99.90
2967;DHT22;1493;51.496;7.210;2022-12-31T07:25:52;16.40;99.90
2967;DHT22;1493;51.496;7.210;2022-12-31T07:28:32;16.40;99.90
2967;DHT22;1493;51.496;7.210;2022-12-31T07:31:09;16.50;99.90
2967;DHT22;1493;51.496;7.210;2022-12-31T07:33:47;16.50;99.90
2967;DHT22;1493;51.496;7.210;2022-12-31T07:36:26;16.50;99.90
2967;DHT22;1493;51.496;7.210;2022-12-31T07:39:02;16.50;99.90
2967;DHT22;1493;51.496;7.210;2022-12-31T07:41:46;16.50;99.90
2967;DHT22;1493;51.496;7.210;2022-12-31T07:44:34;16.50;99.90
2967;DHT22;1493;51.496;7.210;2022-12-31T07:47:15;16.50;99.90
2967;DHT22;1493;51.496;7.210;2022-12-31T07:49:45;16.50;99.90
2967;DHT22;1493;51.496;7.210;2022-12-31T07:52:12;16.50;99.90
2967;DHT22;1493;51.496;7.210;2022-12-31T07:54:39;16.50;99.90
2967;DHT22;1493;51.496;7.210;2022-12-31T07:57:06;16.60;99.90
2967;DHT22;1493;51.496;7.210;2022-12-31T07:59:45;16.60;99.90
2967;DHT22;1493;51.496;7.210;2022-12-31T08:02:21;16.60;99.90
2967;DHT22;1493;51.496;7.210;2022-12-31T08:04:55;16.60;99.90
2967;DHT22;1493;51.496;7.210;2022-12-31T08:07:33;16.60;99.90
2967;DHT22;1493;51.496;7.210;2022-12-31T08:10:07;16.60;99.90
2967;DHT22;1493;51.496;7.210;2022-12-31T08:12:39;16.70;99.90
2967;DHT22;1493;51.496;7.210;2022-12-31T08:15:15;16.70;99.90
2967;DHT22;1493;51.496;7.210;2022-12-31T08:17:45;16.70;99.90
2967;DHT22;1493;51.496;7.210;2022-12-31T08:20:13;16.70;99.90
2967;DHT22;1493;51.496;7.210;2022-12-31T08:25:55;16.80;99.90
2967;DHT22;1493;51.496;7.210;2022-12-31T08:28:40;16.80;99.90
2967;DHT22;1493;51.496;7.210;2022-12-31T08:31:13;16.80;99.90
2967;DHT22;1493;51.496;7.210;2022-12-31T08:33:47;16.80;99.90
2967;DHT22;1493;51.496;7.210;2022-12-31T08:36:20;16.80;99.90
2967;DHT22;1493;51.496;7.210;2022-12-31T08:38:53;16.80;99.90
2967;DHT22;1493;51.496;7.210;2022-12-31T08:41:27;16.90;99.90
2967;DHT22;1493;51.496;7.210;2022-12-31T08:44:02;16.90;99.90
2967;DHT22;1493;51.496;7.210;2022-12-31T08:46:33;17.00;99.90
2967;DHT22;1493;51.496;7.210;2022-12-31T08:49:04;17.00;99.90
2967;DHT22;1493;51.496;7.210;2022-12-31T08:51:31;17.00;99.90
2967;DHT22;1493;51.496;7.210;2022-12-31T08:53:58;17.00;99.90
2967;DHT22;1493;51.496;7.210;2022-12-31T08:56:29;17.10;99.90
2967;DHT22;1493;51.496;7.210;2022-12-31T08:59:06;17.10;99.90
2967;DHT22;1493;51.496;7.210;2022-12-31T09:01:46;17.10;99.90
2967;DHT22;1493;51.496;7.210;2022-12-31T09:04:21;17.10;99.90
2967;DHT22;1493;51.496;7.210;2022-12-31T09:06:55;17.00;99.90
2967;DHT22;1493;51.496;7.210;2022-12-31T09:09:33;17.10;99.90
2967;DHT22;1493;51.496;7.210;2022-12-31T09:12:07;17.10;99.90
2967;DHT22;1493;51.496;7.210;2022-12-31T09:14:41;17.10;99.90
2967;DHT22;1493;51.496;7.210;2022-12-31T09:17:26;17.10;99.90
2967;DHT22;1493;51.496;7.210;2022-12-31T09:19:58;17.10;99.90
2967;DHT22;1493;51.496;7.210;2022-12-31T09:22:26;17.20;99.90
2967;DHT22;1493;51.496;7.210;2022-12-31T09:24:53;17.20;99.90
2967;DHT22;1493;51.496;7.210;2022-12-31T09:27:25;17.20;99.90
2967;DHT22;1493;51.496;7.210;2022-12-31T09:29:57;17.20;99.90
2967;DHT22;1493;51.496;7.210;2022-12-31T09:32:33;17.10;99.90
2967;DHT22;1493;51.496;7.210;2022-12-31T09:35:09;17.10;99.90
2967;DHT22;1493;51.496;7.210;2022-12-31T09:37:44;17.20;99.90
2967;DHT22;1493;51.496;7.210;2022-12-31T09:40:34;17.20;99.90
2967;DHT22;1493;51.496;7.210;2022-12-31T09:46:31;17.20;99.90
2967;DHT22;1493;51.496;7.210;2022-12-31T09:52:08;17.20;99.90
2967;DHT22;1493;51.496;7.210;2022-12-31T09:54:46;17.10;99.90
2967;DHT22;1493;51.496;7.210;2022-12-31T09:57:26;17.10;99.90
2967;DHT22;1493;51.496;7.210;2022-12-31T10:00:00;17.20;99.90
2967;DHT22;1493;51.496;7.210;2022-12-31T10:02:44;17.10;99.90
2967;DHT22;1493;51.496;7.210;2022-12-31T10:05:30;17.10;99.90
2967;DHT22;1493;51.496;7.210;2022-12-31T10:08:12;17.20;99.90
2967;DHT22;1493;51.496;7.210;2022-12-31T10:10:49;17.20;99.90
2967;DHT22;1493;51.496;7.210;2022-12-31T10:13:40;17.20;99.90
2967;DHT22;1493;51.496;7.210;2022-12-31T10:16:37;17.20;99.90
2967;DHT22;1493;51.496;7.210;2022-12-31T10:19:36;17.20;99.90
2967;DHT22;1493;51.496;7.210;2022-12-31T10:22:25;17.20;99.90
2967;DHT22;1493;51.496;7.210;2022-12-31T10:25:30;17.30;99.90
2967;DHT22;1493;51.496;7.210;2022-12-31T10:28:05;17.30;99.90
2967;DHT22;1493;51.496;7.210;2022-12-31T10:30:41;17.30;99.90
2967;DHT22;1493;51.496;7.210;2022-12-31T10:33:15;17.30;99.90
2967;DHT22;1493;51.496;7.210;2022-12-31T10:35:49;17.40;99.90
2967;DHT22;1493;51.496;7.210;2022-12-31T10:38:29;17.50;99.90
2967;DHT22;1493;51.496;7.210;2022-12-31T10:44:52;17.70;99.90
2967;DHT22;1493;51.496;7.210;2022-12-31T10:50:43;17.70;99.90
2967;DHT22;1493;51.496;7.210;2022-12-31T10:59:50;17.70;99.90
2967;DHT22;1493;51.496;7.210;2022-12-31T11:05:55;17.70;99.90
2967;DHT22;1493;51.496;7.210;2022-12-31T11:08:49;17.70;99.90
2967;DHT22;1493;51.496;7.210;2022-12-31T11:11:29;17.70;99.90
2967;DHT22;1493;51.496;7.210;2022-12-31T11:14:23;17.70;99.90
2967;DHT22;1493;51.496;7.210;2022-12-31T11:17:09;17.70;99.90
2967;DHT22;1493;51.496;7.210;2022-12-31T11:19:46;17.90;99.90
2967;DHT22;1493;51.496;7.210;2022-12-31T11:22:28;18.00;99.90
2967;DHT22;1493;51.496;7.210;2022-12-31T11:25:14;18.20;99.90
2967;DHT22;1493;51.496;7.210;2022-12-31T11:27:58;18.00;99.90
2967;DHT22;1493;51.496;7.210;2022-12-31T11:30:36;17.90;99.90
2967;DHT22;1493;51.496;7.210;2022-12-31T11:33:19;18.00;99.90
2967;DHT22;1493;51.496;7.210;2022-12-31T11:36:08;18.00;99.90
2967;DHT22;1493;51.496;7.210;2022-12-31T11:38:42;18.00;99.90
2967;DHT22;1493;51.496;7.210;2022-12-31T11:41:15;17.90;99.90
2967;DHT22;1493;51.496;7.210;2022-12-31T11:43:52;17.80;99.90
2967;DHT22;1493;51.496;7.210;2022-12-31T11:46:39;17.80;99.90
2967;DHT22;1493;51.496;7.210;2022-12-31T11:49:33;17.80;99.90
2967;DHT22;1493;51.496;7.210;2022-12-31T11:52:42;17.80;99.90
2967;DHT22;1493;51.496;7.210;2022-12-31T11:55:25;17.70;99.90
2967;DHT22;1493;51.496;7.210;2022-12-31T11:57:58;17.70;99.90
2967;DHT22;1493;51.496;7.210;2022-12-31T12:00:29;17.60;99.90
2967;DHT22;1493;51.496;7.210;2022-12-31T12:02:59;17.60;99.90
2967;DHT22;1493;51.496;7.210;2022-12-31T12:05:27;17.60;99.90
2967;DHT22;1493;51.496;7.210;2022-12-31T12:07:54;17.60;99.90
2967;DHT22;1493;51.496;7.210;2022-12-31T12:10:24;17.50;99.90
2967;DHT22;1493;51.496;7.210;2022-12-31T12:12:51;17.50;99.90
2967;DHT22;1493;51.496;7.210;2022-12-31T12:15:22;17.50;99.90
2967;DHT22;1493;51.496;7.210;2022-12-31T12:17:52;17.50;99.90
2967;DHT22;1493;51.496;7.210;2022-12-31T12:20:25;17.50;99.90
2967;DHT22;1493;51.496;7.210;2022-12-31T12:22:55;17.40;99.90
2967;DHT22;1493;51.496;7.210;2022-12-31T12:25:35;17.30;99.90
2967;DHT22;1493;51.496;7.210;2022-12-31T12:28:16;17.20;99.90
2967;DHT22;1493;51.496;7.210;2022-12-31T12:31:26;16.70;99.90
2967;DHT22;1493;51.496;7.210;2022-12-31T12:33:52;16.40;99.90
2967;DHT22;1493;51.496;7.210;2022-12-31T12:36:23;16.20;99.90
2967;DHT22;1493;51.496;7.210;2022-12-31T12:39:00;16.00;99.90
2967;DHT22;1493;51.496;7.210;2022-12-31T12:41:29;16.00;99.90
2967;DHT22;1493;51.496;7.210;2022-12-31T12:44:04;15.90;99.90
2967;DHT22;1493;51.496;7.210;2022-12-31T12:46:33;15.70;99.90
2967;DHT22;1493;51.496;7.210;2022-12-31T12:49:02;15.70;99.90
2967;DHT22;1493;51.496;7.210;2022-12-31T12:51:40;15.50;99.90
2967;DHT22;1493;51.496;7.210;2022-12-31T12:54:18;15.50;99.90
2967;DHT22;1493;51.496;7.210;2022-12-31T12:56:57;15.40;99.90
2967;DHT22;1493;51.496;7.210;2022-12-31T13:00:00;15.40;99.90
2967;DHT22;1493;51.496;7.210;2022-12-31T13:05:33;15.30;99.90
2967;DHT22;1493;51.496;7.210;2022-12-31T13:08:16;15.30;99.90
2967;DHT22;1493;51.496;7.210;2022-12-31T13:10:58;15.30;99.90
2967;DHT22;1493;51.496;7.210;2022-12-31T13:13:35;15.30;99.90
2967;DHT22;1493;51.496;7.210;2022-12-31T13:16:10;15.30;99.90
2967;DHT22;1493;51.496;7.210;2022-12-31T13:18:49;15.30;99.90
2967;DHT22;1493;51.496;7.210;2022-12-31T13:21:31;15.40;99.90
2967;DHT22;1493;51.496;7.210;2022-12-31T13:24:06;15.50;99.90
2967;DHT22;1493;51.496;7.210;2022-12-31T13:26:35;15.70;99.90
2967;DHT22;1493;51.496;7.210;2022-12-31T13:29:04;15.80;99.90
2967;DHT22;1493;51.496;7.210;2022-12-31T13:31:36;15.90;99.90
2967;DHT22;1493;51.496;7.210;2022-12-31T13:34:09;16.00;99.90
2967;DHT22;1493;51.496;7.210;2022-12-31T13:36:41;16.10;99.90
2967;DHT22;1493;51.496;7.210;2022-12-31T13:39:14;16.00;99.90
2967;DHT22;1493;51.496;7.210;2022-12-31T13:41:45;15.90;99.90
2967;DHT22;1493;51.496;7.210;2022-12-31T13:44:19;16.00;99.90
2967;DHT22;1493;51.496;7.210;2022-12-31T13:46:53;16.10;99.90
2967;DHT22;1493;51.496;7.210;2022-12-31T13:49:25;16.20;99.90
2967;DHT22;1493;51.496;7.210;2022-12-31T13:51:59;16.30;99.90
2967;DHT22;1493;51.496;7.210;2022-12-31T13:54:33;16.50;99.90
2967;DHT22;1493;51.496;7.210;2022-12-31T13:57:04;16.60;99.90
2967;DHT22;1493;51.496;7.210;2022-12-31T13:59:36;16.70;99.90
2967;DHT22;1493;51.496;7.210;2022-12-31T14:02:14;16.80;99.90
2967;DHT22;1493;51.496;7.210;2022-12-31T14:04:47;16.80;99.90
2967;DHT22;1493;51.496;7.210;2022-12-31T14:07:19;16.80;99.90
2967;DHT22;1493;51.496;7.210;2022-12-31T14:09:47;16.80;99.90
2967;DHT22;1493;51.496;7.210;2022-12-31T14:12:27;16.80;99.90
2967;DHT22;1493;51.496;7.210;2022-12-31T14:15:02;16.80;99.90
2967;DHT22;1493;51.496;7.210;2022-12-31T14:17:44;16.80;99.90
2967;DHT22;1493;51.496;7.210;2022-12-31T14:20:17;16.80;99.90
2967;DHT22;1493;51.496;7.210;2022-12-31T14:22:57;16.90;99.90
2967;DHT22;1493;51.496;7.210;2022-12-31T14:25:32;16.90;99.90
2967;DHT22;1493;51.496;7.210;2022-12-31T14:28:02;16.90;99.90
2967;DHT22;1493;51.496;7.210;2022-12-31T14:30:33;16.80;99.90
2967;DHT22;1493;51.496;7.210;2022-12-31T14:33:15;16.80;99.90
2967;DHT22;1493;51.496;7.210;2022-12-31T14:36:00;16.80;99.90
2967;DHT22;1493;51.496;7.210;2022-12-31T14:38:43;16.80;99.90
2967;DHT22;1493;51.496;7.210;2022-12-31T14:41:25;16.80;99.90
2967;DHT22;1493;51.496;7.210;2022-12-31T14:43:59;16.80;99.90
2967;DHT22;1493;51.496;7.210;2022-12-31T14:46:35;16.70;99.90
2967;DHT22;1493;51.496;7.210;2022-12-31T14:49:15;16.70;99.90
2967;DHT22;1493;51.496;7.210;2022-12-31T14:51:46;16.70;99.90
2967;DHT22;1493;51.496;7.210;2022-12-31T14:54:26;16.60;99.90
2967;DHT22;1493;51.496;7.210;2022-12-31T14:56:53;16.50;99.90
2967;DHT22;1493;51.496;7.210;2022-12-31T14:59:25;16.50;99.90
2967;DHT22;1493;51.496;7.210;2022-12-31T15:01:53;16.40;99.90
2967;DHT22;1493;51.496;7.210;2022-12-31T15:04:30;16.40;99.90
2967;DHT22;1493;51.496;7.210;2022-12-31T15:07:05;16.30;99.90
2967;DHT22;1493;51.496;7.210;2022-12-31T15:09:50;16.30;99.90
2967;DHT22;1493;51.496;7.210;2022-12-31T15:12:37;16.20;99.90
2967;DHT22;1493;51.496;7.210;2022-12-31T15:18:30;16.20;99.90
2967;DHT22;1493;51.496;7.210;2022-12-31T15:21:19;16.10;99.90
2967;DHT22;1493;51.496;7.210;2022-12-31T15:23:51;16.10;99.90
2967;DHT22;1493;51.496;7.210;2022-12-31T15:26:22;16.00;99.90
2967;DHT22;1493;51.496;7.210;2022-12-31T15:28:58;16.00;99.90
2967;DHT22;1493;51.496;7.210;2022-12-31T15:31:26;15.90;99.90
2967;DHT22;1493;51.496;7.210;2022-12-31T15:33:56;15.90;99.90
2967;DHT22;1493;51.496;7.210;2022-12-31T15:36:25;15.90;99.90
2967;DHT22;1493;51.496;7.210;2022-12-31T15:39:04;15.90;99.90
2967;DHT22;1493;51.496;7.210;2022-12-31T15:41:37;15.90;99.90
2967;DHT22;1493;51.496;7.210;2022-12-31T15:44:13;16.00;99.90
2967;DHT22;1493;51.496;7.210;2022-12-31T15:46:44;16.00;99.90
2967;DHT22;1493;51.496;7.210;2022-12-31T15:49:17;16.00;99.90
2967;DHT22;1493;51.496;7.210;2022-12-31T15:51:50;16.00;99.90
2967;DHT22;1493;51.496;7.210;2022-12-31T15:54:24;16.00;99.90
2967;DHT22;1493;51.496;7.210;2022-12-31T15:56:54;16.00;99.90
2967;DHT22;1493;51.496;7.210;2022-12-31T15:59:22;16.00;99.90
2967;DHT22;1493;51.496;7.210;2022-12-31T16:01:50;16.00;99.90
2967;DHT22;1493;51.496;7.210;2022-12-31T16:04:22;16.10;99.90
2967;DHT22;1493;51.496;7.210;2022-12-31T16:06:50;16.10;99.90
2967;DHT22;1493;51.496;7.210;2022-12-31T16:09:21;16.10;99.90
2967;DHT22;1493;51.496;7.210;2022-12-31T16:11:49;16.10;99.90
2967;DHT22;1493;51.496;7.210;2022-12-31T16:14:21;16.10;99.90
2967;DHT22;1493;51.496;7.210;2022-12-31T16:16:53;16.20;99.90
2967;DHT22;1493;51.496;7.210;2022-12-31T16:19:29;16.20;99.90
2967;DHT22;1493;51.496;7.210;2022-12-31T16:21:58;16.20;99.90
2967;DHT22;1493;51.496;7.210;2022-12-31T16:24:28;16.20;99.90
2967;DHT22;1493;51.496;7.210;2022-12-31T16:26:58;16.20;99.90
2967;DHT22;1493;51.496;7.210;2022-12-31T16:29:28;16.20;99.90
2967;DHT22;1493;51.496;7.210;2022-12-31T16:31:56;16.30;99.90
2967;DHT22;1493;51.496;7.210;2022-12-31T16:34:26;16.30;99.90
2967;DHT22;1493;51.496;7.210;2022-12-31T16:36:55;16.20;99.90
2967;DHT22;1493;51.496;7.210;2022-12-31T16:39:25;16.20;99.90
2967;DHT22;1493;51.496;7.210;2022-12-31T16:42:16;16.20;99.90
2967;DHT22;1493;51.496;7.210;2022-12-31T16:44:46;16.20;99.90
2967;DHT22;1493;51.496;7.210;2022-12-31T16:47:16;16.20;99.90
2967;DHT22;1493;51.496;7.210;2022-12-31T16:49:46;16.20;99.90
2967;DHT22;1493;51.496;7.210;2022-12-31T16:52:24;16.20;99.90
2967;DHT22;1493;51.496;7.210;2022-12-31T16:54:52;16.20;99.90
2967;DHT22;1493;51.496;7.210;2022-12-31T16:57:21;16.20;99.90
2967;DHT22;1493;51.496;7.210;2022-12-31T16:59:52;16.20;99.90
2967;DHT22;1493;51.496;7.210;2022-12-31T17:02:24;16.20;99.90
2967;DHT22;1493;51.496;7.210;2022-12-31T17:04:53;16.20;99.90
2967;DHT22;1493;51.496;7.210;2022-12-31T17:07:25;16.20;99.90
2967;DHT22;1493;51.496;7.210;2022-12-31T17:10:07;16.20;99.90
2967;DHT22;1493;51.496;7.210;2022-12-31T17:12:41;16.20;99.90